TAF KIXD
KIXD 081741Z 0818/0918 16005KT P6SM FEW250 FM090600 16012KT P6SM BKN120=
METAR KIXD
WC KIXD
WS KIXD
WV KIXD